Time;durP1;ratioP1;P1;durP2;ratioP2;P2;SDS_P1;SDS_P2;PMS_P1;PMS_P2;Temp;Humidity;BMP_temperature;BMP_pressure;BME280_temperature;BME280_humidity;BME280_pressure;Samples;Min_cycle;Max_cycle;Signal;HPM_P1;HPM_P2
2021/05/27 00:00:44;;;;;;;5.35;3.30;;;16.60;99.90;;;;;;5071721;28;20029;-85
2021/05/27 00:03:11;;;;;;;4.63;3.13;;;16.50;99.90;;;;;;5072995;28;20020;-85
2021/05/27 00:05:38;;;;;;;6.80;3.13;;;16.60;99.90;;;;;;5072565;28;20081;-86
2021/05/27 00:08:10;;;;;;;3.70;2.65;;;16.60;99.90;;;;;;5074966;28;20036;-86
2021/05/27 00:10:42;;;;;;;5.20;2.67;;;16.50;99.90;;;;;;5072474;28;20037;-86
2021/05/27 00:13:08;;;;;;;5.78;2.90;;;16.50;99.90;;;;;;5073419;28;20155;-86
2021/05/27 00:15:34;;;;;;;5.57;2.80;;;16.50;99.90;;;;;;5074564;28;20063;-86
2021/05/27 00:18:00;;;;;;;5.93;2.83;;;16.50;99.90;;;;;;5073806;28;20043;-86
2021/05/27 00:20:28;;;;;;;4.35;2.80;;;16.50;99.90;;;;;;5054599;28;20028;-86
2021/05/27 00:23:01;;;;;;;7.20;3.40;;;16.60;99.90;;;;;;5073032;28;20028;-87
2021/05/27 00:25:31;;;;;;;6.13;3.20;;;16.60;99.90;;;;;;5071015;28;20083;-86
2021/05/27 00:27:56;;;;;;;5.22;3.10;;;16.50;99.90;;;;;;5073351;28;20017;-86
2021/05/27 00:30:41;;;;;;;6.32;2.63;;;16.30;99.90;;;;;;5074943;28;20036;-86
2021/05/27 00:33:08;;;;;;;5.22;2.95;;;16.30;99.90;;;;;;5073519;28;20119;-86
2021/05/27 00:35:34;;;;;;;4.72;3.47;;;16.20;99.90;;;;;;5054804;28;20044;-86
2021/05/27 00:38:04;;;;;;;6.07;3.42;;;16.20;99.90;;;;;;5055902;28;20032;-86
2021/05/27 00:40:33;;;;;;;3.97;2.80;;;16.20;99.90;;;;;;5072414;28;20582;-86
2021/05/27 00:43:02;;;;;;;4.63;2.58;;;16.20;99.90;;;;;;5072249;28;20060;-86
2021/05/27 00:45:29;;;;;;;4.95;3.35;;;16.20;99.90;;;;;;5069339;28;20017;-86
2021/05/27 00:47:58;;;;;;;6.22;3.22;;;16.20;99.90;;;;;;5071401;28;20110;-86
2021/05/27 00:50:33;;;;;;;4.72;2.80;;;16.20;99.90;;;;;;5072372;28;20279;-86
2021/05/27 00:53:08;;;;;;;4.22;2.90;;;16.10;99.90;;;;;;5055343;28;20029;-86
2021/05/27 00:55:35;;;;;;;6.45;3.08;;;16.10;99.90;;;;;;5070724;28;20033;-85
2021/05/27 00:58:02;;;;;;;5.40;2.97;;;16.20;99.90;;;;;;5089292;28;20508;-86
2021/05/27 01:00:29;;;;;;;3.90;2.70;;;16.20;99.90;;;;;;5074765;28;20539;-86
2021/05/27 01:02:59;;;;;;;4.53;3.00;;;15.80;99.90;;;;;;5070731;28;20021;-86
2021/05/27 01:05:25;;;;;;;4.90;3.00;;;16.00;99.90;;;;;;5070858;28;20114;-85
2021/05/27 01:08:01;;;;;;;4.38;2.60;;;16.00;99.90;;;;;;5071394;28;20028;-86
2021/05/27 01:10:33;;;;;;;4.97;3.17;;;15.90;99.90;;;;;;5070771;28;20396;-86
2021/05/27 01:13:01;;;;;;;6.25;2.95;;;15.80;99.90;;;;;;5056422;28;20025;-85
2021/05/27 01:15:38;;;;;;;6.10;3.05;;;15.90;1.00;;;;;;5073651;28;20028;-85
2021/05/27 01:18:16;;;;;;;6.45;3.40;;;16.00;99.90;;;;;;5071406;28;20048;-86
2021/05/27 01:20:46;;;;;;;4.55;3.25;;;15.90;99.90;;;;;;5070364;28;20035;-86
2021/05/27 01:23:14;;;;;;;5.22;2.90;;;15.90;99.90;;;;;;5071751;28;20068;-85
2021/05/27 01:25:47;;;;;;;6.72;2.90;;;15.90;99.90;;;;;;5085549;28;20092;-86
2021/05/27 01:28:19;;;;;;;4.78;2.92;;;15.80;99.90;;;;;;5072996;28;20028;-86
2021/05/27 01:30:46;;;;;;;5.20;3.05;;;15.70;99.90;;;;;;5071830;28;20024;-85
2021/05/27 01:33:13;;;;;;;4.38;2.88;;;15.60;99.90;;;;;;5088713;28;20072;-85
2021/05/27 01:35:39;;;;;;;5.20;3.05;;;15.50;99.90;;;;;;5091435;28;20499;-84
2021/05/27 01:38:16;;;;;;;5.43;3.08;;;15.50;99.90;;;;;;5089854;28;20036;-86
2021/05/27 01:40:43;;;;;;;4.63;3.05;;;15.30;99.90;;;;;;5090851;28;20047;-85
2021/05/27 01:43:10;;;;;;;4.70;2.80;;;15.40;99.90;;;;;;5074282;28;20434;-85
2021/05/27 01:45:36;;;;;;;6.18;3.40;;;15.50;99.90;;;;;;5092707;28;20111;-84
2021/05/27 01:48:02;;;;;;;6.43;2.88;;;15.40;99.90;;;;;;5091834;28;20445;-85
2021/05/27 01:50:28;;;;;;;4.57;2.90;;;15.40;99.90;;;;;;5091059;28;20070;-84
2021/05/27 01:53:13;;;;;;;7.50;3.22;;;15.40;99.90;;;;;;5075215;28;20492;-85
2021/05/27 01:55:44;;;;;;;5.43;3.00;;;15.30;99.90;;;;;;5090649;28;20020;-85
2021/05/27 01:58:11;;;;;;;6.03;2.92;;;15.30;99.90;;;;;;5091608;28;20064;-85
2021/05/27 02:00:37;;;;;;;5.85;3.05;;;15.40;99.90;;;;;;5091718;28;20024;-85
2021/05/27 02:03:03;;;;;;;5.97;2.75;;;15.40;99.90;;;;;;5091732;28;20036;-85
2021/05/27 02:05:29;;;;;;;6.53;3.58;;;15.40;99.90;;;;;;5089430;28;20031;-85
2021/05/27 02:07:54;;;;;;;5.53;3.40;;;15.40;99.90;;;;;;5073312;28;20036;-85
2021/05/27 02:10:20;;;;;;;6.43;3.45;;;15.30;99.90;;;;;;5091645;28;20032;-85
2021/05/27 02:12:46;;;;;;;4.97;3.05;;;15.30;1.00;;;;;;5091023;28;20028;-84
2021/05/27 02:15:12;;;;;;;5.70;3.30;;;15.30;1.00;;;;;;5092449;28;20020;-85
2021/05/27 02:17:38;;;;;;;5.07;3.35;;;15.40;1.00;;;;;;5072952;28;20178;-85
2021/05/27 02:20:06;;;;;;;6.00;3.60;;;15.30;1.00;;;;;;5073568;28;20467;-85
2021/05/27 02:22:32;;;;;;;6.25;3.70;;;15.30;1.00;;;;;;5090966;28;20443;-85
2021/05/27 02:24:57;;;;;;;6.00;3.15;;;15.40;1.00;;;;;;5090843;28;20043;-85
2021/05/27 02:27:23;;;;;;;5.72;3.33;;;15.30;1.00;;;;;;5092353;28;20115;-85
2021/05/27 02:29:49;;;;;;;6.15;3.53;;;15.20;1.00;;;;;;5090090;28;20031;-85
2021/05/27 02:32:15;;;;;;;5.80;3.22;;;15.10;1.00;;;;;;5079389;28;20160;-84
2021/05/27 02:34:40;;;;;;;7.75;3.53;;;15.10;1.00;;;;;;5053872;28;20111;-85
2021/05/27 02:37:06;;;;;;;6.38;3.72;;;15.10;1.00;;;;;;5070479;28;20030;-85
2021/05/27 02:39:32;;;;;;;7.75;3.60;;;15.10;1.00;;;;;;5071863;28;20387;-85
2021/05/27 02:41:59;;;;;;;5.80;3.50;;;15.20;1.00;;;;;;5070655;28;20432;-85
2021/05/27 02:44:25;;;;;;;6.07;3.60;;;15.00;1.00;;;;;;5070314;28;20036;-85
2021/05/27 02:46:51;;;;;;;7.55;3.65;;;15.00;1.00;;;;;;5071291;28;20379;-85
2021/05/27 02:49:17;;;;;;;4.63;3.40;;;15.20;1.00;;;;;;5054327;28;20025;-85
2021/05/27 02:51:43;;;;;;;6.10;3.53;;;14.90;1.00;;;;;;5071641;28;20025;-85
2021/05/27 02:54:08;;;;;;;5.80;3.30;;;14.90;1.00;;;;;;5051375;28;20024;-85
2021/05/27 02:56:34;;;;;;;6.70;3.90;;;14.80;1.00;;;;;;5051477;28;20036;-85
2021/05/27 02:59:00;;;;;;;5.78;3.90;;;14.70;1.00;;;;;;5053383;28;20131;-85
2021/05/27 03:01:25;;;;;;;6.38;3.75;;;14.70;1.00;;;;;;5070044;28;20119;-84
2021/05/27 03:03:51;;;;;;;5.85;3.42;;;14.60;1.00;;;;;;5054003;28;20028;-85
2021/05/27 03:06:17;;;;;;;7.90;3.67;;;14.60;1.00;;;;;;5072050;28;20029;-84
2021/05/27 03:08:43;;;;;;;8.35;3.70;;;14.60;1.00;;;;;;5053249;28;20056;-85
2021/05/27 03:11:09;;;;;;;6.43;4.00;;;14.60;1.00;;;;;;5049865;28;20110;-85
2021/05/27 03:13:35;;;;;;;7.38;3.92;;;14.50;1.00;;;;;;5068532;28;20075;-85
2021/05/27 03:16:02;;;;;;;7.05;3.60;;;14.60;1.00;;;;;;5051263;28;20556;-85
2021/05/27 03:18:30;;;;;;;5.72;3.47;;;14.50;1.00;;;;;;5071354;28;20044;-85
2021/05/27 03:20:56;;;;;;;8.70;3.55;;;14.50;1.00;;;;;;5069230;28;20024;-85
2021/05/27 03:23:22;;;;;;;7.75;3.65;;;14.50;1.00;;;;;;5069802;28;20482;-85
2021/05/27 03:25:48;;;;;;;6.03;3.65;;;14.50;1.00;;;;;;5069172;28;20028;-85
2021/05/27 03:28:14;;;;;;;6.45;3.40;;;14.40;1.00;;;;;;5069637;28;20036;-85
2021/05/27 03:30:40;;;;;;;6.25;3.95;;;14.40;1.00;;;;;;5070967;28;20543;-85
2021/05/27 03:33:05;;;;;;;9.50;4.10;;;14.40;1.00;;;;;;5070226;28;20053;-85
2021/05/27 03:35:31;;;;;;;7.07;4.10;;;14.40;1.00;;;;;;5069205;28;20048;-85
2021/05/27 03:37:58;;;;;;;6.20;3.75;;;14.80;1.00;;;;;;5069356;28;20041;-85
2021/05/27 03:40:24;;;;;;;7.30;3.95;;;14.30;1.00;;;;;;5046533;28;20033;-85
2021/05/27 03:42:54;;;;;;;6.40;3.75;;;14.30;1.00;;;;;;5068813;28;20119;-85
2021/05/27 03:45:23;;;;;;;7.97;4.10;;;14.30;1.00;;;;;;5071371;28;20024;-85
2021/05/27 03:47:49;;;;;;;6.90;3.63;;;14.30;1.00;;;;;;5069176;28;20396;-85
2021/05/27 03:50:17;;;;;;;7.35;4.10;;;14.30;1.00;;;;;;5070975;28;20075;-85
2021/05/27 03:52:43;;;;;;;7.60;4.82;;;14.60;1.00;;;;;;5069863;28;20090;-85
2021/05/27 03:55:11;;;;;;;7.25;4.30;;;14.30;1.00;;;;;;5069334;28;20025;-85
2021/05/27 03:57:37;;;;;;;6.13;3.83;;;14.30;1.00;;;;;;5070644;28;20035;-84
2021/05/27 04:02:51;;;;;;;6.20;3.92;;;14.20;1.00;;;;;;5068003;28;20067;-85
2021/05/27 04:08:03;;;;;;;7.05;4.22;;;14.30;1.00;;;;;;5069866;28;20078;-85
2021/05/27 04:10:29;;;;;;;10.52;4.32;;;14.30;1.00;;;;;;5050033;28;20074;-85
2021/05/27 04:12:54;;;;;;;8.30;4.07;;;14.40;1.00;;;;;;5068874;28;20033;-85
2021/05/27 04:15:29;;;;;;;6.65;3.85;;;14.40;1.00;;;;;;5070416;28;20055;-85
2021/05/27 04:18:08;;;;;;;6.93;4.25;;;14.50;1.00;;;;;;5070593;28;20047;-84
2021/05/27 04:20:40;;;;;;;7.72;4.05;;;14.50;1.00;;;;;;5068717;28;20393;-84
2021/05/27 04:23:12;;;;;;;8.02;3.85;;;14.60;1.00;;;;;;5068249;28;20472;-85
2021/05/27 04:25:39;;;;;;;5.40;4.00;;;14.60;1.00;;;;;;5068259;28;20036;-86
2021/05/27 04:28:06;;;;;;;6.85;3.90;;;14.70;1.00;;;;;;5071385;28;20481;-85
2021/05/27 04:31:07;;;;;;;7.85;4.25;;;14.70;1.00;;;;;;5072213;28;20016;-85
2021/05/27 04:33:18;;;;;;;8.00;4.00;;;14.70;1.00;;;;;;5074164;28;20044;-85
2021/05/27 04:35:44;;;;;;;4.95;3.53;;;14.90;1.00;;;;;;5072841;28;20500;-85
2021/05/27 04:38:12;;;;;;;6.20;3.75;;;14.90;1.00;;;;;;5070395;28;20032;-85
2021/05/27 04:40:40;;;;;;;4.90;3.72;;;14.90;1.00;;;;;;5072572;28;20478;-85
2021/05/27 04:43:06;;;;;;;6.47;3.97;;;14.80;1.00;;;;;;5072692;28;20056;-84
2021/05/27 04:45:32;;;;;;;6.68;4.00;;;14.80;1.00;;;;;;5074193;28;20477;-85
2021/05/27 04:47:58;;;;;;;5.80;3.80;;;14.70;1.00;;;;;;5072783;28;20029;-85
2021/05/27 04:50:25;;;;;;;6.68;3.72;;;14.80;1.00;;;;;;5053197;28;20028;-85
2021/05/27 04:52:51;;;;;;;6.20;3.83;;;14.80;1.00;;;;;;5065973;28;20107;-85
2021/05/27 04:55:19;;;;;;;7.88;3.70;;;14.80;1.00;;;;;;5055777;28;20038;-85
2021/05/27 04:57:45;;;;;;;6.63;3.50;;;14.90;1.00;;;;;;5073604;28;20037;-85
2021/05/27 05:00:14;;;;;;;4.93;3.50;;;14.90;1.00;;;;;;5053848;28;20036;-85
2021/05/27 05:02:40;;;;;;;7.63;3.75;;;15.00;1.00;;;;;;5071310;28;20476;-85
2021/05/27 05:05:07;;;;;;;9.23;4.30;;;15.10;1.00;;;;;;5071977;28;20028;-86
2021/05/27 05:07:33;;;;;;;9.07;4.30;;;15.00;1.00;;;;;;5072107;28;20090;-86
2021/05/27 05:09:59;;;;;;;8.68;3.90;;;15.10;1.00;;;;;;5074426;28;20499;-87
2021/05/27 05:12:25;;;;;;;6.65;3.80;;;15.20;1.00;;;;;;5073783;28;20029;-88
2021/05/27 05:14:50;;;;;;;11.13;4.43;;;15.20;1.00;;;;;;5055611;28;20009;-88
2021/05/27 05:17:16;;;;;;;7.32;4.03;;;15.20;1.00;;;;;;5056207;28;20036;-89
2021/05/27 05:19:42;;;;;;;6.45;3.70;;;15.30;1.00;;;;;;5072833;28;20392;-89
2021/05/27 05:22:07;;;;;;;7.55;4.57;;;15.40;1.00;;;;;;5054130;28;20029;-88
2021/05/27 05:24:33;;;;;;;9.82;4.38;;;15.40;1.00;;;;;;5056427;28;20028;-93
2021/05/27 05:26:58;;;;;;;12.10;4.68;;;15.40;1.00;;;;;;5073095;28;20035;-89
2021/05/27 05:29:24;;;;;;;9.32;3.90;;;15.60;1.00;;;;;;5072760;28;20056;-89
2021/05/27 05:31:50;;;;;;;7.70;4.45;;;15.80;1.00;;;;;;5058601;28;20058;-89
2021/05/27 05:34:15;;;;;;;8.10;4.25;;;15.90;1.00;;;;;;5091422;28;20052;-88
2021/05/27 05:36:41;;;;;;;9.95;4.53;;;15.80;1.00;;;;;;5092334;28;20043;-89
2021/05/27 05:39:07;;;;;;;13.30;4.30;;;16.00;1.00;;;;;;5093207;28;20032;-89
2021/05/27 05:41:33;;;;;;;11.00;4.10;;;16.00;1.00;;;;;;5091964;28;20089;-89
2021/05/27 05:43:59;;;;;;;8.80;4.68;;;16.10;1.00;;;;;;5089968;28;20078;-89
2021/05/27 05:46:25;;;;;;;5.45;4.07;;;16.20;1.00;;;;;;5092536;28;20024;-88
2021/05/27 05:48:51;;;;;;;8.07;3.92;;;16.30;1.00;;;;;;5074368;28;20114;-88
2021/05/27 05:51:16;;;;;;;7.20;3.70;;;16.30;1.00;;;;;;5091896;28;20099;-89
2021/05/27 05:53:42;;;;;;;7.80;4.05;;;16.40;1.00;;;;;;5092253;28;20479;-88
2021/05/27 05:56:08;;;;;;;7.75;4.63;;;16.40;1.00;;;;;;5090338;28;20028;-89
2021/05/27 05:58:33;;;;;;;8.93;4.10;;;16.30;1.00;;;;;;5093266;28;20119;-88
2021/05/27 06:00:59;;;;;;;11.82;4.03;;;16.50;1.00;;;;;;5073842;28;20036;-89
2021/05/27 06:03:25;;;;;;;9.38;4.00;;;16.60;1.00;;;;;;5092179;28;20073;-88
2021/05/27 06:05:50;;;;;;;7.75;3.97;;;16.70;1.00;;;;;;5073329;28;20479;-88
2021/05/27 06:08:16;;;;;;;7.95;4.25;;;16.70;1.00;;;;;;5092791;28;20020;-88
2021/05/27 06:10:42;;;;;;;8.65;3.63;;;16.70;99.90;;;;;;5072745;28;20323;-88
2021/05/27 06:13:08;;;;;;;8.98;4.03;;;16.40;1.00;;;;;;5090521;28;20436;-89
2021/05/27 06:15:34;;;;;;;6.53;3.85;;;16.60;1.00;;;;;;5092698;28;20028;-89
2021/05/27 06:18:00;;;;;;;6.13;3.72;;;16.70;99.90;;;;;;5090062;28;20032;-89
2021/05/27 06:20:28;;;;;;;11.10;3.88;;;16.70;1.00;;;;;;5091079;28;20020;-88
2021/05/27 06:22:54;;;;;;;7.38;3.90;;;16.60;99.90;;;;;;5072562;28;20032;-89
2021/05/27 06:25:23;;;;;;;7.90;4.18;;;16.50;1.00;;;;;;5091263;28;20020;-88
2021/05/27 06:27:51;;;;;;;6.10;3.60;;;16.40;1.00;;;;;;5092299;28;20020;-88
2021/05/27 06:30:17;;;;;;;5.57;3.88;;;16.40;1.00;;;;;;5073218;28;20134;-88
2021/05/27 06:32:43;;;;;;;8.20;3.80;;;16.60;1.00;;;;;;5073471;28;20078;-88
2021/05/27 06:35:11;;;;;;;6.60;3.75;;;16.70;1.00;;;;;;5090633;28;20060;-88
2021/05/27 06:37:39;;;;;;;8.68;3.75;;;16.60;99.90;;;;;;5088842;28;20069;-87
2021/05/27 06:40:07;;;;;;;8.07;3.42;;;16.80;99.90;;;;;;5071622;28;20027;-87
2021/05/27 06:42:33;;;;;;;7.70;4.13;;;16.90;99.90;;;;;;5075031;28;20028;-86
2021/05/27 06:44:59;;;;;;;8.00;3.53;;;16.90;99.90;;;;;;5094107;28;20038;-88
2021/05/27 06:47:25;;;;;;;7.97;3.88;;;16.90;99.90;;;;;;5076057;28;20070;-91
2021/05/27 06:49:51;;;;;;;6.88;3.47;;;16.60;99.90;;;;;;5090818;28;20020;-90
2021/05/27 06:52:17;;;;;;;7.90;3.28;;;16.50;99.90;;;;;;5089707;28;20032;-88
2021/05/27 06:54:42;;;;;;;5.78;3.22;;;16.50;99.90;;;;;;5091488;28;20024;-88
2021/05/27 06:57:08;;;;;;;6.78;3.05;;;16.60;99.90;;;;;;5091556;28;20477;-88
2021/05/27 06:59:34;;;;;;;8.05;3.83;;;16.50;99.90;;;;;;5091235;28;20028;-87
2021/05/27 07:01:59;;;;;;;7.38;3.53;;;16.50;99.90;;;;;;5072137;28;20028;-88
2021/05/27 07:04:25;;;;;;;9.18;3.60;;;16.50;99.90;;;;;;5089048;28;20400;-88
2021/05/27 07:06:51;;;;;;;6.57;3.10;;;16.60;99.90;;;;;;5091251;28;20055;-89
2021/05/27 07:09:19;;;;;;;6.72;3.40;;;16.50;99.90;;;;;;5091355;28;20028;-88
2021/05/27 07:11:45;;;;;;;7.78;3.50;;;16.70;1.00;;;;;;5072764;28;20032;-88
2021/05/27 07:14:10;;;;;;;7.45;3.38;;;16.70;99.90;;;;;;5072420;28;20199;-88
2021/05/27 07:16:36;;;;;;;7.10;3.15;;;16.70;99.90;;;;;;5089534;28;20095;-88
2021/05/27 07:19:03;;;;;;;8.30;3.17;;;17.10;99.90;;;;;;5072497;28;20103;-88
2021/05/27 07:21:28;;;;;;;5.97;3.20;;;17.20;99.90;;;;;;5092289;28;20028;-88
2021/05/27 07:23:54;;;;;;;7.45;3.25;;;17.60;99.90;;;;;;5090788;28;20545;-88
2021/05/27 07:26:20;;;;;;;7.47;3.35;;;17.70;99.90;;;;;;5072362;28;20081;-88
2021/05/27 07:28:45;;;;;;;6.25;3.20;;;17.70;99.90;;;;;;5090227;28;20032;-88
2021/05/27 07:31:11;;;;;;;6.63;3.33;;;18.00;99.90;;;;;;5089069;28;20064;-87
2021/05/27 07:33:37;;;;;;;8.55;3.80;;;18.30;99.90;;;;;;5091277;28;20039;-88
2021/05/27 07:36:04;;;;;;;5.93;3.67;;;18.20;99.90;;;;;;5090326;28;20028;-88
2021/05/27 07:38:30;;;;;;;7.53;3.85;;;18.50;99.90;;;;;;5072723;28;20458;-88
2021/05/27 07:40:56;;;;;;;7.95;3.97;;;18.30;99.90;;;;;;5074006;28;20024;-88
2021/05/27 07:43:22;;;;;;;7.60;3.60;;;18.20;99.90;;;;;;5073307;28;20106;-87
2021/05/27 07:45:47;;;;;;;8.15;3.15;;;18.70;99.90;;;;;;5073293;28;20028;-87
2021/05/27 07:48:13;;;;;;;11.45;3.70;;;18.60;99.90;;;;;;5073768;28;20496;-88
2021/05/27 07:50:39;;;;;;;9.93;3.35;;;18.60;99.90;;;;;;5073650;28;20019;-88
2021/05/27 07:53:06;;;;;;;8.05;3.33;;;18.80;99.90;;;;;;5087977;28;20107;-87
2021/05/27 07:55:33;;;;;;;8.63;3.45;;;19.20;99.90;;;;;;5088156;28;20034;-88
2021/05/27 07:57:59;;;;;;;7.50;3.38;;;19.20;99.90;;;;;;5071709;28;20067;-87
2021/05/27 08:00:25;;;;;;;5.85;3.30;;;19.40;99.90;;;;;;5092064;28;20032;-87
2021/05/27 08:02:51;;;;;;;6.70;3.55;;;19.50;99.90;;;;;;5072109;28;20024;-87
2021/05/27 08:05:19;;;;;;;8.43;3.60;;;19.10;99.90;;;;;;5074169;28;20024;-88
2021/05/27 08:07:46;;;;;;;8.07;3.33;;;19.00;99.90;;;;;;5093982;28;20102;-87
2021/05/27 08:10:12;;;;;;;6.95;3.53;;;19.70;99.90;;;;;;5092482;28;20115;-88
2021/05/27 08:12:39;;;;;;;8.70;3.50;;;19.90;99.90;;;;;;5095137;28;20016;-88
2021/05/27 08:15:05;;;;;;;7.97;3.67;;;19.70;99.90;;;;;;5094267;28;20086;-87
2021/05/27 08:17:31;;;;;;;5.15;3.55;;;19.70;99.90;;;;;;5093225;28;20028;-87
2021/05/27 08:19:57;;;;;;;6.45;3.30;;;19.50;99.90;;;;;;5077491;28;20028;-88
2021/05/27 08:22:27;;;;;;;7.10;3.67;;;19.60;99.90;;;;;;5093869;28;21692;-87
2021/05/27 08:24:53;;;;;;;6.22;3.50;;;19.80;99.90;;;;;;5095157;28;20480;-88
2021/05/27 08:27:18;;;;;;;7.13;3.38;;;19.80;99.90;;;;;;5094849;28;20030;-88
2021/05/27 08:29:44;;;;;;;8.80;3.78;;;19.50;99.90;;;;;;5093819;28;20094;-87
2021/05/27 08:32:09;;;;;;;12.30;3.72;;;19.40;99.90;;;;;;5082401;28;20105;-87
2021/05/27 08:34:35;;;;;;;8.05;3.50;;;19.60;99.90;;;;;;5067258;28;20025;-87
2021/05/27 08:37:01;;;;;;;5.53;3.10;;;20.20;99.90;;;;;;5038442;28;20068;-88
2021/05/27 08:39:26;;;;;;;7.93;3.13;;;20.30;99.90;;;;;;5074364;28;20035;-87
2021/05/27 08:41:52;;;;;;;9.27;3.15;;;20.30;99.90;;;;;;5056547;28;20032;-87
2021/05/27 08:44:18;;;;;;;6.95;3.65;;;20.40;99.90;;;;;;5072904;28;20020;-87
2021/05/27 08:46:43;;;;;;;6.20;3.10;;;20.30;99.90;;;;;;5052891;28;20039;-88
2021/05/27 08:49:10;;;;;;;7.78;3.05;;;20.50;99.90;;;;;;5056897;28;20111;-88
2021/05/27 08:51:35;;;;;;;5.97;3.30;;;21.00;99.90;;;;;;5074041;28;20432;-88
2021/05/27 08:54:02;;;;;;;6.57;3.13;;;20.90;99.90;;;;;;5073140;28;20036;-87
2021/05/27 08:56:28;;;;;;;6.75;3.70;;;20.80;99.90;;;;;;5056164;28;20021;-87
2021/05/27 08:58:54;;;;;;;8.13;3.30;;;21.20;99.90;;;;;;5054494;28;20040;-87
2021/05/27 09:01:23;;;;;;;9.55;3.33;;;20.70;99.90;;;;;;5072319;28;20051;-87
2021/05/27 09:03:49;;;;;;;4.85;3.17;;;20.90;99.90;;;;;;5073036;28;20056;-88
2021/05/27 09:06:15;;;;;;;6.82;3.33;;;20.90;99.90;;;;;;5056454;28;20123;-87
2021/05/27 09:08:42;;;;;;;7.18;3.30;;;20.70;99.90;;;;;;5054304;28;20118;-87
2021/05/27 09:11:08;;;;;;;8.43;3.63;;;20.70;99.90;;;;;;5071164;28;20533;-88
2021/05/27 09:13:35;;;;;;;9.43;3.60;;;21.30;99.90;;;;;;5070570;28;20028;-87
2021/05/27 09:16:09;;;;;;;6.32;3.38;;;21.60;99.90;;;;;;5055330;28;20028;-88
2021/05/27 09:18:40;;;;;;;7.03;3.60;;;21.50;99.90;;;;;;5073387;28;20127;-88
2021/05/27 09:21:08;;;;;;;8.98;4.68;;;21.60;99.90;;;;;;5072786;28;20016;-87
2021/05/27 09:23:36;;;;;;;8.43;3.85;;;21.50;99.90;;;;;;5071737;28;20060;-88
2021/05/27 09:26:07;;;;;;;6.07;4.00;;;21.60;99.90;;;;;;5071305;28;20035;-88
2021/05/27 09:28:34;;;;;;;5.75;3.67;;;21.90;99.90;;;;;;5071962;28;20028;-88
2021/05/27 09:31:05;;;;;;;7.95;3.58;;;22.10;99.90;;;;;;5071614;28;20452;-88
2021/05/27 09:33:36;;;;;;;9.65;3.97;;;21.60;99.90;;;;;;5069532;28;20044;-87
2021/05/27 09:36:03;;;;;;;5.95;3.30;;;21.50;99.90;;;;;;5073166;28;20039;-87
2021/05/27 09:38:31;;;;;;;8.73;3.60;;;21.40;99.90;;;;;;5054936;28;20543;-87
2021/05/27 09:40:56;;;;;;;5.85;3.90;;;21.20;99.90;;;;;;5071857;28;20070;-87
2021/05/27 09:43:25;;;;;;;5.50;3.47;;;21.10;99.90;;;;;;5070899;28;20029;-88
2021/05/27 09:46:02;;;;;;;6.88;3.92;;;21.30;99.90;;;;;;5071996;28;20021;-87
2021/05/27 09:48:28;;;;;;;6.00;3.60;;;21.50;99.90;;;;;;5073360;28;20021;-88
2021/05/27 09:50:58;;;;;;;6.50;3.80;;;21.50;99.90;;;;;;5069668;28;20091;-87
2021/05/27 09:53:28;;;;;;;6.85;4.00;;;22.10;99.90;;;;;;5069793;28;20024;-87
2021/05/27 09:55:58;;;;;;;6.00;3.50;;;22.10;99.90;;;;;;5053263;28;20045;-88
2021/05/27 09:58:25;;;;;;;8.70;3.42;;;22.30;99.90;;;;;;5070794;28;20090;-88
2021/05/27 10:00:53;;;;;;;6.30;3.95;;;21.80;99.90;;;;;;5071528;28;20079;-88
2021/05/27 10:03:21;;;;;;;5.85;3.42;;;21.60;99.90;;;;;;5072639;28;20020;-87
2021/05/27 10:05:47;;;;;;;11.15;4.90;;;21.20;99.90;;;;;;5070942;28;20031;-87
2021/05/27 10:08:13;;;;;;;4.80;3.42;;;21.20;99.90;;;;;;5068790;28;20074;-87
2021/05/27 10:10:41;;;;;;;6.03;3.60;;;21.30;99.90;;;;;;5070582;28;20029;-88
2021/05/27 10:13:07;;;;;;;6.50;4.07;;;21.10;99.90;;;;;;5070328;28;20911;-87
2021/05/27 10:15:34;;;;;;;6.60;3.70;;;20.90;99.90;;;;;;5054773;28;20025;-87
2021/05/27 10:18:03;;;;;;;5.00;3.40;;;21.00;99.90;;;;;;5069585;28;20040;-87
2021/05/27 10:20:29;;;;;;;6.70;3.08;;;20.90;99.90;;;;;;5070695;28;20059;-88
2021/05/27 10:22:58;;;;;;;6.90;3.65;;;21.10;99.90;;;;;;5069760;28;20119;-87
2021/05/27 10:25:26;;;;;;;8.32;3.78;;;21.00;99.90;;;;;;5069812;28;20031;-88
2021/05/27 10:27:53;;;;;;;6.72;3.60;;;20.80;99.90;;;;;;5069567;28;20906;-87
2021/05/27 10:30:21;;;;;;;8.43;3.63;;;20.70;99.90;;;;;;5070874;28;20025;-87
2021/05/27 10:32:55;;;;;;;6.40;3.50;;;20.90;99.90;;;;;;5068247;28;20503;-87
2021/05/27 10:35:20;;;;;;;5.95;3.70;;;21.20;99.90;;;;;;5070874;28;20027;-87
2021/05/27 10:37:50;;;;;;;6.03;3.33;;;20.70;99.90;;;;;;5070224;28;20036;-87
2021/05/27 10:40:19;;;;;;;6.30;3.38;;;20.60;99.90;;;;;;5070104;28;20016;-87
2021/05/27 10:42:57;;;;;;;5.78;3.78;;;20.40;99.90;;;;;;5071105;28;20029;-88
2021/05/27 10:45:28;;;;;;;6.28;3.65;;;20.20;99.90;;;;;;5071743;28;20035;-87
2021/05/27 10:48:12;;;;;;;7.15;3.55;;;20.20;99.90;;;;;;5069928;28;20032;-87
2021/05/27 10:51:17;;;;;;;6.70;4.05;;;20.30;99.90;;;;;;5070470;28;20025;-87
2021/05/27 10:53:43;;;;;;;6.45;3.40;;;20.50;99.90;;;;;;5071941;28;20420;-87
2021/05/27 10:56:16;;;;;;;7.80;3.83;;;20.70;99.90;;;;;;5039503;28;20039;-87
2021/05/27 10:58:48;;;;;;;6.25;3.65;;;21.00;99.90;;;;;;5059678;28;20040;-87
2021/05/27 11:01:18;;;;;;;7.55;3.72;;;21.10;99.90;;;;;;5070515;28;20024;-88
2021/05/27 11:03:47;;;;;;;5.20;3.25;;;21.20;99.90;;;;;;5071027;28;20090;-88
2021/05/27 11:06:35;;;;;;;5.38;3.50;;;21.30;99.90;;;;;;5069585;28;20112;-87
2021/05/27 11:09:10;;;;;;;7.05;3.25;;;21.50;99.90;;;;;;5068885;28;20515;-86
2021/05/27 11:11:40;;;;;;;8.77;3.60;;;21.10;99.90;;;;;;5067189;28;20629;-88
2021/05/27 11:14:20;;;;;;;7.47;3.67;;;21.00;99.90;;;;;;5068671;28;20490;-87
2021/05/27 11:17:01;;;;;;;5.90;3.15;;;20.70;99.90;;;;;;5080524;28;20083;-87
2021/05/27 11:22:30;;;;;;;11.32;3.80;;;21.50;99.90;;;;;;5054477;28;20039;-88
2021/05/27 11:25:08;;;;;;;9.65;3.70;;;21.80;99.90;;;;;;5068973;28;20035;-87
2021/05/27 11:27:42;;;;;;;5.68;2.97;;;21.90;99.90;;;;;;5067886;28;20503;-87
2021/05/27 11:30:22;;;;;;;6.68;3.17;;;21.90;99.90;;;;;;5070969;28;20027;-87
2021/05/27 11:32:59;;;;;;;5.40;3.22;;;22.40;99.90;;;;;;5069285;28;20041;-87
2021/05/27 11:35:30;;;;;;;6.45;2.97;;;21.80;99.90;;;;;;5069235;28;20020;-87
2021/05/27 11:37:57;;;;;;;4.93;3.10;;;21.60;99.90;;;;;;5051425;28;20036;-87
2021/05/27 11:40:29;;;;;;;6.85;3.22;;;21.70;99.90;;;;;;5074434;28;21719;-87
2021/05/27 11:42:55;;;;;;;7.63;3.42;;;22.00;99.90;;;;;;5076699;28;20407;-87
2021/05/27 11:45:23;;;;;;;5.65;2.95;;;22.50;99.90;;;;;;5078152;28;20020;-87
2021/05/27 11:48:16;;;;;;;6.40;3.20;;;22.70;99.90;;;;;;5074482;28;20036;-88
2021/05/27 11:50:43;;;;;;;5.85;3.13;;;23.30;99.90;;;;;;5074930;28;20025;-87
2021/05/27 11:53:09;;;;;;;5.07;3.00;;;23.70;99.90;;;;;;5058133;28;20021;-87
2021/05/27 11:55:36;;;;;;;7.53;3.05;;;23.80;99.90;;;;;;5076012;28;20512;-87
2021/05/27 11:58:04;;;;;;;4.70;3.22;;;23.00;99.90;;;;;;5076123;28;20064;-86
2021/05/27 12:00:30;;;;;;;5.75;2.90;;;23.80;99.90;;;;;;5078169;28;20162;-87
2021/05/27 12:02:59;;;;;;;4.47;2.95;;;25.50;99.90;;;;;;5057851;28;20393;-87
2021/05/27 12:05:35;;;;;;;4.25;2.67;;;27.10;99.90;;;;;;5074846;28;20110;-87
2021/05/27 12:08:08;;;;;;;4.68;2.25;;;28.10;99.90;;;;;;5075348;28;20466;-87
2021/05/27 12:10:35;;;;;;;3.85;2.70;;;29.00;99.90;;;;;;5076827;28;20035;-87
2021/05/27 12:13:03;;;;;;;5.05;3.03;;;29.90;99.90;;;;;;5041980;28;20032;-87
2021/05/27 12:15:29;;;;;;;5.18;2.72;;;30.30;99.90;;;;;;5055379;28;20017;-87
2021/05/27 12:17:58;;;;;;;5.20;2.75;;;30.40;99.90;;;;;;5075702;28;20040;-87
2021/05/27 12:20:35;;;;;;;5.10;2.60;;;30.40;99.90;;;;;;5076178;28;20150;-87
2021/05/27 12:23:13;;;;;;;4.70;2.83;;;29.80;99.90;;;;;;5075037;28;20526;-88
2021/05/27 12:25:47;;;;;;;7.05;3.30;;;30.10;99.90;;;;;;5075008;28;20028;-88
2021/05/27 12:28:20;;;;;;;4.53;2.65;;;29.60;99.90;;;;;;5056155;28;20037;-88
2021/05/27 12:30:52;;;;;;;3.42;2.20;;;29.20;99.90;;;;;;5058050;28;20027;-87
2021/05/27 12:33:20;;;;;;;6.28;2.88;;;28.80;99.90;;;;;;5093994;28;20094;-87
2021/05/27 12:35:46;;;;;;;5.78;3.28;;;28.70;99.90;;;;;;5070161;28;20055;-87
2021/05/27 12:38:27;;;;;;;4.50;2.85;;;29.10;99.90;;;;;;5095357;28;20124;-87
2021/05/27 12:40:54;;;;;;;6.25;2.85;;;28.50;99.90;;;;;;5095359;28;20389;-88
2021/05/27 12:43:30;;;;;;;5.60;2.75;;;28.60;99.90;;;;;;5095852;28;20518;-88
2021/05/27 12:45:57;;;;;;;6.35;3.20;;;28.50;99.90;;;;;;5096065;28;20034;-87
2021/05/27 12:48:23;;;;;;;7.78;2.50;;;27.70;99.90;;;;;;5079351;28;20416;-87
2021/05/27 12:51:00;;;;;;;5.05;2.67;;;28.30;99.90;;;;;;5092982;28;20031;-87
2021/05/27 12:53:27;;;;;;;7.35;2.72;;;28.30;99.90;;;;;;5092087;28;20027;-87
2021/05/27 12:55:54;;;;;;;5.65;2.80;;;28.50;99.90;;;;;;5092541;28;20078;-87
2021/05/27 12:58:32;;;;;;;3.88;2.40;;;28.80;99.90;;;;;;5092907;28;20032;-87
2021/05/27 13:01:00;;;;;;;4.68;2.72;;;28.70;99.90;;;;;;5074318;28;20027;-88
2021/05/27 13:03:26;;;;;;;5.47;3.00;;;29.10;99.90;;;;;;5094164;28;20038;-88